createdAt,value
2023-06-30T00:01:34.882Z,3.33
2023-06-30T00:04:03.334Z,3.08
2023-06-30T00:06:30.820Z,3.17
2023-06-30T00:08:57.694Z,3.10
2023-06-30T00:11:25.201Z,3.20
2023-06-30T00:13:53.282Z,3.42
2023-06-30T00:16:20.856Z,3.60
2023-06-30T00:18:47.889Z,3.70
2023-06-30T00:21:14.916Z,3.80
2023-06-30T00:23:41.596Z,4.07
2023-06-30T00:26:08.425Z,3.50
2023-06-30T00:28:35.073Z,3.40
2023-06-30T00:31:01.771Z,3.38
2023-06-30T00:33:28.494Z,3.80
2023-06-30T00:35:55.195Z,3.60
2023-06-30T00:38:21.960Z,3.40
2023-06-30T00:40:48.640Z,3.63
2023-06-30T00:43:15.377Z,3.08
2023-06-30T00:45:42.063Z,3.42
2023-06-30T00:48:08.810Z,3.47
2023-06-30T00:50:35.622Z,3.10
2023-06-30T00:53:02.467Z,3.25
2023-06-30T00:55:29.698Z,3.47
2023-06-30T00:57:56.324Z,4.70
2023-06-30T01:00:23.152Z,4.53
2023-06-30T01:03:02.531Z,4.07
2023-06-30T01:05:38.522Z,3.47
2023-06-30T01:08:18.827Z,3.65
2023-06-30T01:10:47.546Z,3.20
2023-06-30T01:13:15.071Z,3.38
2023-06-30T01:15:44.314Z,3.42
2023-06-30T01:18:13.665Z,3.53
2023-06-30T01:20:41.654Z,3.42
2023-06-30T01:23:16.728Z,3.85
2023-06-30T01:25:44.217Z,3.28
2023-06-30T01:28:12.117Z,3.20
2023-06-30T01:30:39.065Z,3.83
2023-06-30T01:33:05.975Z,3.70
2023-06-30T01:35:32.803Z,3.10
2023-06-30T01:38:00.679Z,3.45
2023-06-30T01:40:27.346Z,3.30
2023-06-30T01:42:56.649Z,3.47
2023-06-30T01:45:25.674Z,3.58
2023-06-30T01:47:52.919Z,3.55
2023-06-30T01:50:20.383Z,3.40
2023-06-30T01:52:47.300Z,3.50
2023-06-30T01:55:13.976Z,3.13
2023-06-30T01:57:40.709Z,3.55
2023-06-30T02:00:07.952Z,3.28
2023-06-30T02:02:34.746Z,3.47
2023-06-30T02:05:01.418Z,3.30
2023-06-30T02:07:28.126Z,3.05
2023-06-30T02:09:54.892Z,3.78
2023-06-30T02:12:21.568Z,3.63
2023-06-30T02:14:48.204Z,4.00
2023-06-30T02:17:15.089Z,3.60
2023-06-30T02:19:42.364Z,3.33
2023-06-30T02:22:08.986Z,3.38
2023-06-30T02:24:35.632Z,3.53
2023-06-30T02:27:02.319Z,3.45
2023-06-30T02:29:28.957Z,3.53
2023-06-30T02:31:55.633Z,3.92
2023-06-30T02:34:22.305Z,3.70
2023-06-30T02:36:49.668Z,3.63
2023-06-30T02:39:16.576Z,4.30
2023-06-30T02:41:43.221Z,4.32
2023-06-30T02:44:09.858Z,4.18
2023-06-30T02:46:36.494Z,4.07
2023-06-30T02:49:03.132Z,4.07
2023-06-30T02:51:29.820Z,4.00
2023-06-30T02:53:56.478Z,3.80
2023-06-30T02:56:23.134Z,4.18
2023-06-30T02:58:49.777Z,4.55
2023-06-30T03:01:17.131Z,4.35
2023-06-30T03:03:44.104Z,4.78
2023-06-30T03:06:10.832Z,4.60
2023-06-30T03:08:37.526Z,4.03
2023-06-30T03:11:04.188Z,4.38
2023-06-30T03:13:30.961Z,4.55
2023-06-30T03:15:58.173Z,4.57
2023-06-30T03:18:24.919Z,4.28
2023-06-30T03:20:51.618Z,4.10
2023-06-30T03:23:20.345Z,4.05
2023-06-30T03:25:47.298Z,4.10
2023-06-30T03:28:20.233Z,4.55
2023-06-30T03:30:47.011Z,4.00
2023-06-30T03:33:13.730Z,4.53
2023-06-30T03:35:40.352Z,3.83
2023-06-30T03:40:33.571Z,3.90
2023-06-30T03:43:00.239Z,3.90
2023-06-30T03:45:26.858Z,4.30
2023-06-30T03:50:20.113Z,4.13
2023-06-30T03:52:46.764Z,4.40
2023-06-30T03:55:13.542Z,4.28
2023-06-30T03:57:40.268Z,3.85
2023-06-30T04:00:08.647Z,3.95
2023-06-30T04:02:35.401Z,4.00
2023-06-30T04:05:02.114Z,4.13
2023-06-30T04:07:28.934Z,3.97
2023-06-30T04:09:56.908Z,3.72
2023-06-30T04:12:23.582Z,4.07
2023-06-30T04:14:50.215Z,4.13
2023-06-30T04:17:16.862Z,3.90
2023-06-30T04:19:43.509Z,4.00
2023-06-30T04:22:10.122Z,4.40
2023-06-30T04:24:36.801Z,3.88
2023-06-30T04:27:03.609Z,4.50
2023-06-30T04:29:30.889Z,5.00
2023-06-30T04:31:57.573Z,5.10
2023-06-30T04:34:24.281Z,3.72
2023-06-30T04:36:50.966Z,4.32
2023-06-30T04:39:17.867Z,4.78
2023-06-30T04:41:44.506Z,4.30
2023-06-30T04:44:11.210Z,4.43
2023-06-30T04:46:37.994Z,4.32
2023-06-30T04:49:05.858Z,5.13
2023-06-30T04:51:32.500Z,4.47
2023-06-30T04:53:59.395Z,4.53
2023-06-30T04:56:27.177Z,5.05
2023-06-30T04:58:53.823Z,4.68
2023-06-30T05:01:20.557Z,4.85
2023-06-30T05:03:47.267Z,4.43
2023-06-30T05:06:13.927Z,4.55
2023-06-30T05:08:40.557Z,4.88
2023-06-30T05:11:08.784Z,4.97
2023-06-30T05:13:35.655Z,4.95
2023-06-30T05:16:02.426Z,4.25
2023-06-30T05:18:29.165Z,4.53
2023-06-30T05:20:56.370Z,4.65
2023-06-30T05:23:24.725Z,4.53
2023-06-30T05:25:51.455Z,4.80
2023-06-30T05:28:18.093Z,4.65
2023-06-30T05:30:45.051Z,4.97
2023-06-30T05:33:11.721Z,5.03
2023-06-30T05:35:38.460Z,5.10
2023-06-30T05:38:05.160Z,4.85
2023-06-30T05:40:31.805Z,5.18
2023-06-30T05:42:58.477Z,4.68
2023-06-30T05:45:26.418Z,4.75
2023-06-30T05:47:53.123Z,4.68
2023-06-30T05:50:22.858Z,4.60
2023-06-30T05:52:49.872Z,4.80
2023-06-30T05:55:16.917Z,4.72
2023-06-30T05:57:43.549Z,4.95
2023-06-30T06:00:10.540Z,4.43
2023-06-30T06:02:37.246Z,5.10
2023-06-30T06:05:04.165Z,5.30
2023-06-30T06:07:30.903Z,4.90
2023-06-30T06:09:57.556Z,4.55
2023-06-30T06:12:24.184Z,5.13
2023-06-30T06:14:50.796Z,4.55
2023-06-30T06:17:17.443Z,4.82
2023-06-30T06:19:44.215Z,4.75
2023-06-30T06:22:10.910Z,4.85
2023-06-30T06:24:38.165Z,4.68
2023-06-30T06:27:05.167Z,5.22
2023-06-30T06:29:31.823Z,5.50
2023-06-30T06:31:58.433Z,4.72
2023-06-30T06:34:25.119Z,5.05
2023-06-30T06:36:51.761Z,6.05
2023-06-30T06:39:20.247Z,4.68
2023-06-30T06:41:46.883Z,5.57
2023-06-30T06:44:13.507Z,5.28
2023-06-30T06:46:40.281Z,4.80
2023-06-30T06:49:07.201Z,4.53
2023-06-30T06:51:34.552Z,4.88
2023-06-30T06:54:01.378Z,5.18
2023-06-30T06:56:28.061Z,3.72
2023-06-30T06:58:54.697Z,4.30
2023-06-30T07:01:21.597Z,4.05
2023-06-30T07:03:48.346Z,4.45
2023-06-30T07:06:15.094Z,3.72
2023-06-30T07:08:41.733Z,4.40
2023-06-30T07:11:09.196Z,4.40
2023-06-30T07:13:35.897Z,4.43
2023-06-30T07:16:02.578Z,5.32
2023-06-30T07:18:30.775Z,4.88
2023-06-30T07:20:57.539Z,3.90
2023-06-30T07:23:26.943Z,4.20
2023-06-30T07:25:54.121Z,4.38
2023-06-30T07:28:20.949Z,4.70
2023-06-30T07:30:47.759Z,4.30
2023-06-30T07:33:14.522Z,4.40
2023-06-30T07:35:41.623Z,4.47
2023-06-30T07:38:08.361Z,5.05
2023-06-30T07:43:06.051Z,4.25
2023-06-30T07:45:32.747Z,3.90
2023-06-30T07:47:59.436Z,4.43
2023-06-30T07:50:26.375Z,4.07
2023-06-30T07:52:53.010Z,3.72
2023-06-30T07:55:19.817Z,4.90
2023-06-30T07:57:48.088Z,4.80
2023-06-30T08:00:21.512Z,3.88
2023-06-30T08:02:48.568Z,5.72
2023-06-30T08:05:15.553Z,4.05
2023-06-30T08:07:50.609Z,4.05
2023-06-30T08:10:18.172Z,4.03
2023-06-30T08:12:45.143Z,4.07
2023-06-30T08:15:11.939Z,4.50
2023-06-30T08:17:53.965Z,4.03
2023-06-30T08:22:51.022Z,5.68
2023-06-30T08:25:20.733Z,5.63
2023-06-30T08:27:47.349Z,4.55
2023-06-30T08:30:14.219Z,6.15
2023-06-30T08:32:40.977Z,4.63
2023-06-30T08:35:07.880Z,4.80
2023-06-30T08:37:34.554Z,5.60
2023-06-30T08:40:04.906Z,4.88
2023-06-30T08:42:34.865Z,4.68
2023-06-30T08:45:03.680Z,5.60
2023-06-30T08:47:33.411Z,5.68
2023-06-30T08:50:00.675Z,5.30
2023-06-30T08:52:27.724Z,6.88
2023-06-30T08:54:54.718Z,5.07
2023-06-30T08:57:22.454Z,5.10
2023-06-30T08:59:49.698Z,5.82
2023-06-30T09:02:16.760Z,7.50
2023-06-30T09:04:44.084Z,5.90
2023-06-30T09:07:19.177Z,7.40
2023-06-30T09:09:46.919Z,7.70
2023-06-30T09:12:15.109Z,7.60
2023-06-30T09:14:43.708Z,8.52
2023-06-30T09:17:10.480Z,9.55
2023-06-30T09:19:37.226Z,8.07
2023-06-30T09:22:51.874Z,8.18
2023-06-30T09:24:53.385Z,8.63
2023-06-30T09:27:20.177Z,9.63
2023-06-30T09:32:16.187Z,8.02
2023-06-30T09:34:42.867Z,9.68
2023-06-30T09:37:15.770Z,7.53
2023-06-30T09:39:50.156Z,10.23
2023-06-30T09:42:17.260Z,8.93
2023-06-30T09:44:44.038Z,9.40
2023-06-30T09:47:13.526Z,10.57
2023-06-30T09:49:44.202Z,9.77
2023-06-30T09:52:10.907Z,9.38
2023-06-30T09:54:44.400Z,11.63
2023-06-30T09:57:11.824Z,9.70
2023-06-30T09:59:38.602Z,9.70
2023-06-30T10:02:05.479Z,10.73
2023-06-30T10:04:32.120Z,10.73
2023-06-30T10:06:59.544Z,10.10
2023-06-30T10:09:26.432Z,10.43
2023-06-30T10:11:55.938Z,10.38
2023-06-30T10:14:30.941Z,10.23
2023-06-30T10:17:00.170Z,9.25
2023-06-30T10:19:29.140Z,10.57
2023-06-30T10:21:56.862Z,8.82
2023-06-30T10:24:28.226Z,8.57
2023-06-30T10:26:55.852Z,7.57
2023-06-30T10:29:23.393Z,9.88
2023-06-30T10:31:50.551Z,7.55
2023-06-30T10:34:18.586Z,8.40
2023-06-30T10:36:46.437Z,7.65
2023-06-30T10:39:13.873Z,8.65
2023-06-30T10:41:48.419Z,9.20
2023-06-30T10:44:16.160Z,7.40
2023-06-30T10:46:53.902Z,6.85
2023-06-30T10:49:30.619Z,7.10
2023-06-30T10:51:59.918Z,6.60
2023-06-30T10:54:29.628Z,6.78
2023-06-30T10:57:18.338Z,7.30
2023-06-30T10:59:46.229Z,6.43
2023-06-30T11:02:19.028Z,6.68
2023-06-30T11:04:47.363Z,7.43
2023-06-30T11:07:18.919Z,7.38
2023-06-30T11:09:48.835Z,6.38
2023-06-30T11:12:20.343Z,7.82
2023-06-30T11:14:57.396Z,5.88
2023-06-30T11:17:28.744Z,6.35
2023-06-30T11:20:14.637Z,8.32
2023-06-30T11:22:42.500Z,6.50
2023-06-30T11:25:12.335Z,6.65
2023-06-30T11:27:40.581Z,7.63
2023-06-30T11:30:08.382Z,5.95
2023-06-30T11:32:39.054Z,6.25
2023-06-30T11:35:10.715Z,6.90
2023-06-30T11:37:37.842Z,6.63
2023-06-30T11:40:07.698Z,7.18
2023-06-30T11:42:39.201Z,5.93
2023-06-30T11:45:06.577Z,6.82
2023-06-30T11:47:34.723Z,8.32
2023-06-30T11:50:09.231Z,6.30
2023-06-30T11:52:37.709Z,6.80
2023-06-30T11:55:07.893Z,6.82
2023-06-30T11:57:38.389Z,7.65
2023-06-30T12:00:13.375Z,9.80
2023-06-30T12:02:48.621Z,10.55
2023-06-30T12:05:24.610Z,11.05
2023-06-30T12:07:54.479Z,12.27
2023-06-30T12:10:38.526Z,11.75
2023-06-30T12:13:09.561Z,11.65
2023-06-30T12:15:37.833Z,13.05
2023-06-30T12:18:07.494Z,13.68
2023-06-30T12:20:40.105Z,13.50
2023-06-30T12:23:07.979Z,13.48
2023-06-30T12:25:36.430Z,14.00
2023-06-30T12:28:05.210Z,15.15
2023-06-30T12:30:32.291Z,15.15
2023-06-30T12:33:01.334Z,15.43
2023-06-30T12:35:30.119Z,14.30
2023-06-30T12:37:57.043Z,15.13
2023-06-30T12:40:25.680Z,16.77
2023-06-30T12:42:54.161Z,17.17
2023-06-30T12:45:21.181Z,17.65
2023-06-30T12:47:47.960Z,16.52
2023-06-30T12:50:14.692Z,16.15
2023-06-30T12:52:41.378Z,16.42
2023-06-30T12:55:09.786Z,15.60
2023-06-30T12:57:36.598Z,16.17
2023-06-30T13:00:07.831Z,13.88
2023-06-30T13:02:35.105Z,14.38
2023-06-30T13:05:02.114Z,14.45
2023-06-30T13:07:28.866Z,14.00
2023-06-30T13:09:55.550Z,14.25
2023-06-30T13:12:27.178Z,14.52
2023-06-30T13:14:54.806Z,14.13
2023-06-30T13:17:21.622Z,14.40
2023-06-30T13:19:49.035Z,13.82
2023-06-30T13:22:16.476Z,12.77
2023-06-30T13:24:47.136Z,13.07
2023-06-30T13:27:14.013Z,11.98
2023-06-30T13:29:52.233Z,11.55
2023-06-30T13:32:18.943Z,11.27
2023-06-30T13:34:47.000Z,12.30
2023-06-30T13:37:14.221Z,12.40
2023-06-30T13:39:41.270Z,11.00
2023-06-30T13:42:09.804Z,11.23
2023-06-30T13:44:37.661Z,11.95
2023-06-30T13:47:04.516Z,10.07
2023-06-30T13:49:31.273Z,9.95
2023-06-30T13:51:58.225Z,10.50
2023-06-30T13:54:25.137Z,10.40
2023-06-30T13:56:52.985Z,10.50
2023-06-30T13:59:19.698Z,10.45
2023-06-30T14:01:46.515Z,9.77
2023-06-30T14:04:13.513Z,10.00
2023-06-30T14:06:40.212Z,9.30
2023-06-30T14:09:10.725Z,9.23
2023-06-30T14:11:38.891Z,9.18
2023-06-30T14:14:06.274Z,7.78
2023-06-30T14:16:35.590Z,8.48
2023-06-30T14:19:02.655Z,8.20
2023-06-30T14:21:31.597Z,8.52
2023-06-30T14:23:59.130Z,9.52
2023-06-30T14:26:26.059Z,8.38
2023-06-30T14:28:53.893Z,8.38
2023-06-30T14:31:20.748Z,7.97
2023-06-30T14:33:47.435Z,8.48
2023-06-30T14:36:14.290Z,7.57
2023-06-30T14:38:40.978Z,8.48
2023-06-30T14:41:07.619Z,8.52
2023-06-30T14:43:34.345Z,8.85
2023-06-30T14:46:01.001Z,8.38
2023-06-30T14:48:27.674Z,8.68
2023-06-30T14:50:54.325Z,8.48
2023-06-30T14:53:20.979Z,8.60
2023-06-30T14:55:47.837Z,7.97
2023-06-30T14:58:14.684Z,8.73
2023-06-30T15:00:41.356Z,8.45
2023-06-30T15:03:08.226Z,8.65
2023-06-30T15:05:35.143Z,9.02
2023-06-30T15:08:01.859Z,7.57
2023-06-30T15:10:28.513Z,7.75
2023-06-30T15:12:55.253Z,8.13
2023-06-30T15:15:21.930Z,7.65
2023-06-30T15:17:48.602Z,8.85
2023-06-30T15:20:15.487Z,8.00
2023-06-30T15:22:42.650Z,7.75
2023-06-30T15:25:24.052Z,8.93
2023-06-30T15:27:50.864Z,8.48
2023-06-30T15:30:18.250Z,7.53
2023-06-30T15:32:45.177Z,7.95
2023-06-30T15:35:11.952Z,8.27
2023-06-30T15:37:39.508Z,8.20
2023-06-30T15:40:07.141Z,7.25
2023-06-30T15:42:33.991Z,8.35
2023-06-30T15:45:01.401Z,8.18
2023-06-30T15:47:28.094Z,8.60
2023-06-30T15:49:54.762Z,8.55
2023-06-30T15:52:21.453Z,9.13
2023-06-30T15:55:05.238Z,8.38
2023-06-30T15:57:31.874Z,8.70
2023-06-30T15:59:58.567Z,8.43
2023-06-30T16:02:25.295Z,8.52
2023-06-30T16:04:52.675Z,8.38
2023-06-30T16:07:19.376Z,8.27
2023-06-30T16:09:46.597Z,7.80
2023-06-30T16:12:13.260Z,8.10
2023-06-30T16:14:39.891Z,8.35
2023-06-30T16:17:06.788Z,8.73
2023-06-30T16:19:33.423Z,8.02
2023-06-30T16:22:00.232Z,7.72
2023-06-30T16:24:26.896Z,8.15
2023-06-30T16:26:53.637Z,7.78
2023-06-30T16:29:20.249Z,7.88
2023-06-30T16:31:46.923Z,8.02
2023-06-30T16:34:13.776Z,9.57
2023-06-30T16:36:41.158Z,8.50
2023-06-30T16:39:07.892Z,8.00
2023-06-30T16:41:34.536Z,8.90
2023-06-30T16:44:01.490Z,9.23
2023-06-30T16:46:28.807Z,7.88
2023-06-30T16:48:55.460Z,8.85
2023-06-30T16:51:22.137Z,7.75
2023-06-30T16:53:48.773Z,7.75
2023-06-30T16:56:15.463Z,7.90
2023-06-30T16:58:42.089Z,7.88
2023-06-30T17:01:08.775Z,7.50
2023-06-30T17:03:35.442Z,8.48
2023-06-30T17:06:02.226Z,6.82
2023-06-30T17:08:28.963Z,7.85
2023-06-30T17:10:55.979Z,7.57
2023-06-30T17:13:22.624Z,7.38
2023-06-30T17:15:49.411Z,6.85
2023-06-30T17:18:16.204Z,7.60
2023-06-30T17:20:43.455Z,7.75
2023-06-30T17:23:10.880Z,7.88
2023-06-30T17:25:37.517Z,7.75
2023-06-30T17:28:04.409Z,7.55
2023-06-30T17:30:31.020Z,7.50
2023-06-30T17:32:57.674Z,6.45
2023-06-30T17:35:24.788Z,6.43
2023-06-30T17:37:52.185Z,7.13
2023-06-30T17:40:18.871Z,7.50
2023-06-30T17:42:46.014Z,6.80
2023-06-30T17:45:12.641Z,6.90
2023-06-30T17:47:39.516Z,7.18
2023-06-30T17:50:06.978Z,6.60
2023-06-30T17:52:33.715Z,6.68
2023-06-30T17:55:00.392Z,5.43
2023-06-30T17:57:26.998Z,6.90
2023-06-30T17:59:53.772Z,5.63
2023-06-30T18:02:20.513Z,6.45
2023-06-30T18:04:48.186Z,5.93
2023-06-30T18:07:14.908Z,5.47
2023-06-30T18:09:43.902Z,5.82
2023-06-30T18:12:11.664Z,5.60
2023-06-30T18:14:39.298Z,6.07
2023-06-30T18:17:06.289Z,6.05
2023-06-30T18:19:33.149Z,5.68
2023-06-30T18:22:00.045Z,5.28
2023-06-30T18:24:26.773Z,6.03
2023-06-30T18:26:53.503Z,5.57
2023-06-30T18:29:23.768Z,5.38
2023-06-30T18:31:51.735Z,5.30
2023-06-30T18:34:19.154Z,6.10
2023-06-30T18:36:46.120Z,5.82
2023-06-30T18:39:12.886Z,5.53
2023-06-30T18:41:39.918Z,5.43
2023-06-30T18:44:06.603Z,4.95
2023-06-30T18:46:33.338Z,5.38
2023-06-30T18:49:02.189Z,4.82
2023-06-30T18:51:30.747Z,4.43
2023-06-30T18:53:57.477Z,5.28
2023-06-30T18:56:24.429Z,4.32
2023-06-30T18:58:57.699Z,5.07
2023-06-30T19:01:24.703Z,4.38
2023-06-30T19:03:53.003Z,5.03
2023-06-30T19:06:24.941Z,4.22
2023-06-30T19:08:54.149Z,4.93
2023-06-30T19:11:21.013Z,4.78
2023-06-30T19:13:47.705Z,4.28
2023-06-30T19:16:14.480Z,4.70
2023-06-30T19:18:41.413Z,4.32
2023-06-30T19:21:09.706Z,4.20
2023-06-30T19:23:38.122Z,4.18
2023-06-30T19:26:05.061Z,3.83
2023-06-30T19:28:31.759Z,4.30
2023-06-30T19:30:58.416Z,3.88
2023-06-30T19:33:29.577Z,3.97
2023-06-30T19:35:59.782Z,3.72
2023-06-30T19:38:26.891Z,4.22
2023-06-30T19:40:57.204Z,3.97
2023-06-30T19:43:24.175Z,3.72
2023-06-30T19:45:51.333Z,4.07
2023-06-30T19:48:20.054Z,3.65
2023-06-30T19:50:46.893Z,3.85
2023-06-30T19:53:13.689Z,3.67
2023-06-30T19:55:40.444Z,4.05
2023-06-30T19:58:10.368Z,4.13
2023-06-30T20:00:38.565Z,3.88
2023-06-30T20:03:05.636Z,4.15
2023-06-30T20:05:32.422Z,3.97
2023-06-30T20:07:59.082Z,4.00
2023-06-30T20:10:25.803Z,4.22
2023-06-30T20:12:52.688Z,3.60
2023-06-30T20:15:19.492Z,4.45
2023-06-30T20:17:46.243Z,3.47
2023-06-30T20:20:14.896Z,3.92
2023-06-30T20:22:42.300Z,4.28
2023-06-30T20:25:10.047Z,3.83
2023-06-30T20:27:36.754Z,3.85
2023-06-30T20:30:04.452Z,4.30
2023-06-30T20:32:31.270Z,4.07
2023-06-30T20:34:57.975Z,4.20
2023-06-30T20:37:25.271Z,4.45
2023-06-30T20:39:53.294Z,3.95
2023-06-30T20:42:22.280Z,4.13
2023-06-30T20:44:48.975Z,4.22
2023-06-30T20:47:17.248Z,4.07
2023-06-30T20:49:43.944Z,4.10
2023-06-30T20:52:10.744Z,3.80
2023-06-30T20:54:37.805Z,3.83
2023-06-30T20:57:04.749Z,4.28
2023-06-30T20:59:31.443Z,4.25
2023-06-30T21:01:58.408Z,3.97
2023-06-30T21:04:25.194Z,3.60
2023-06-30T21:06:52.022Z,3.97
2023-06-30T21:09:18.717Z,3.67
2023-06-30T21:11:45.463Z,3.70
2023-06-30T21:14:12.237Z,3.33
2023-06-30T21:16:39.110Z,3.90
2023-06-30T21:19:05.909Z,3.53
2023-06-30T21:21:32.713Z,3.75
2023-06-30T21:23:59.394Z,3.97
2023-06-30T21:26:26.145Z,4.30
2023-06-30T21:28:52.874Z,3.40
2023-06-30T21:31:19.743Z,3.80
2023-06-30T21:33:47.496Z,3.22
2023-06-30T21:36:14.602Z,3.60
2023-06-30T21:38:41.903Z,4.03
2023-06-30T21:41:09.505Z,3.85
2023-06-30T21:43:36.294Z,4.03
2023-06-30T21:46:14.030Z,4.18
2023-06-30T21:48:41.157Z,4.40
2023-06-30T21:51:09.137Z,3.97
2023-06-30T21:53:35.901Z,3.92
2023-06-30T21:56:02.567Z,3.47
2023-06-30T21:58:29.230Z,4.30
2023-06-30T22:00:55.988Z,4.00
2023-06-30T22:03:23.017Z,3.90
2023-06-30T22:05:51.106Z,3.55
2023-06-30T22:08:18.020Z,4.20
2023-06-30T22:10:44.730Z,3.92
2023-06-30T22:13:12.302Z,3.85
2023-06-30T22:15:39.340Z,3.90
2023-06-30T22:18:06.209Z,3.95
2023-06-30T22:20:33.021Z,3.60
2023-06-30T22:22:59.694Z,3.85
2023-06-30T22:25:26.376Z,3.47
2023-06-30T22:27:56.259Z,4.30
2023-06-30T22:30:25.518Z,3.88
2023-06-30T22:32:52.407Z,3.85
2023-06-30T22:35:19.201Z,4.10
2023-06-30T22:37:45.859Z,3.60
2023-06-30T22:40:13.777Z,3.50
2023-06-30T22:42:40.518Z,3.40
2023-06-30T22:45:08.000Z,3.85
2023-06-30T22:47:34.866Z,3.50
2023-06-30T22:50:01.894Z,3.30
2023-06-30T22:52:28.754Z,3.58
2023-06-30T22:54:55.465Z,3.78
2023-06-30T22:57:22.098Z,3.83
2023-06-30T22:59:52.202Z,4.07
2023-06-30T23:02:19.811Z,3.55
2023-06-30T23:04:46.662Z,3.45
2023-06-30T23:07:14.273Z,3.60
2023-06-30T23:09:41.093Z,3.28
2023-06-30T23:12:08.284Z,3.45
2023-06-30T23:14:35.151Z,3.60
2023-06-30T23:17:02.739Z,3.50
2023-06-30T23:19:29.811Z,3.50
2023-06-30T23:22:09.291Z,3.45
2023-06-30T23:24:36.745Z,3.90
2023-06-30T23:27:03.670Z,3.80
2023-06-30T23:29:35.231Z,3.22
2023-06-30T23:32:10.856Z,3.05
2023-06-30T23:34:40.084Z,3.75
2023-06-30T23:37:09.988Z,3.40
2023-06-30T23:39:36.629Z,3.70
2023-06-30T23:42:03.338Z,3.10
2023-06-30T23:44:30.275Z,3.83
2023-06-30T23:46:58.309Z,3.30
2023-06-30T23:49:25.092Z,3.25
2023-06-30T23:51:51.705Z,3.40
2023-06-30T23:54:18.829Z,3.90
2023-06-30T23:56:46.206Z,2.90
2023-06-30T23:59:12.857Z,2.67
